createdAt,value
2019-03-17T00:02:58.854Z,5.50
2019-03-17T00:07:15.367Z,5.50
2019-03-17T00:11:31.834Z,5.40
2019-03-17T00:15:48.401Z,5.40
2019-03-17T00:20:06.268Z,5.50
2019-03-17T00:24:22.740Z,5.50
2019-03-17T00:28:39.379Z,5.50
2019-03-17T00:32:55.881Z,5.50
2019-03-17T00:37:12.419Z,5.60
2019-03-17T00:41:31.472Z,5.60
2019-03-17T00:45:47.934Z,5.50
2019-03-17T00:50:07.628Z,5.50
2019-03-17T00:54:24.109Z,5.50
2019-03-17T00:58:40.527Z,5.40
2019-03-17T01:02:57.391Z,5.30
2019-03-17T01:07:13.806Z,5.20
2019-03-17T01:11:30.272Z,5.10
2019-03-17T01:15:46.905Z,5.00
2019-03-17T01:20:08.097Z,4.90
2019-03-17T01:24:26.843Z,4.70
2019-03-17T01:28:44.206Z,4.50
2019-03-17T01:33:00.697Z,4.40
2019-03-17T01:37:17.283Z,4.30
2019-03-17T01:41:33.744Z,4.30
2019-03-17T01:45:50.254Z,4.30
2019-03-17T01:50:07.554Z,4.40
2019-03-17T01:54:24.155Z,4.50
2019-03-17T01:58:40.525Z,4.70
2019-03-17T02:02:57.324Z,4.90
2019-03-17T02:07:13.772Z,5.00
2019-03-17T02:11:30.284Z,5.20
2019-03-17T02:15:46.805Z,5.40
2019-03-17T02:20:06.128Z,5.50
2019-03-17T02:24:22.599Z,5.60
2019-03-17T02:28:39.414Z,5.60
2019-03-17T02:32:55.953Z,5.70
2019-03-17T02:37:12.435Z,5.70
2019-03-17T02:41:28.864Z,5.70
2019-03-17T02:45:45.607Z,5.80
2019-03-17T02:50:03.813Z,5.80
2019-03-17T02:54:20.594Z,5.90
2019-03-17T02:58:37.025Z,5.90
2019-03-17T03:02:53.861Z,5.90
2019-03-17T03:07:10.616Z,5.90
2019-03-17T03:11:27.358Z,6.00
2019-03-17T03:15:44.030Z,6.00
2019-03-17T03:20:00.712Z,6.00
2019-03-17T03:24:17.526Z,6.10
2019-03-17T03:28:33.991Z,6.20
2019-03-17T03:32:50.476Z,6.30
2019-03-17T03:37:07.056Z,6.30
2019-03-17T03:41:23.553Z,6.30
2019-03-17T03:45:40.080Z,6.40
2019-03-17T03:49:57.310Z,6.40
2019-03-17T03:54:13.926Z,6.60
2019-03-17T03:58:30.446Z,6.60
2019-03-17T04:02:46.954Z,6.80
2019-03-17T04:07:03.577Z,6.90
2019-03-17T04:11:20.353Z,6.90
2019-03-17T04:15:37.143Z,6.80
2019-03-17T04:19:54.174Z,6.90
2019-03-17T04:24:11.206Z,7.00
2019-03-17T04:28:28.038Z,7.00
2019-03-17T04:32:44.537Z,7.00
2019-03-17T04:37:01.055Z,7.10
2019-03-17T04:41:17.541Z,7.20
2019-03-17T04:45:34.065Z,7.30
2019-03-17T04:49:50.587Z,7.40
2019-03-17T04:54:07.108Z,7.40
2019-03-17T04:58:23.604Z,7.50
2019-03-17T05:02:40.114Z,7.50
2019-03-17T05:06:56.664Z,7.40
2019-03-17T05:11:13.517Z,7.40
2019-03-17T05:15:29.983Z,7.50
2019-03-17T05:19:46.494Z,7.50
2019-03-17T05:24:03.325Z,7.60
2019-03-17T05:28:19.835Z,7.60
2019-03-17T05:32:36.374Z,7.50
2019-03-17T05:37:04.939Z,7.60
2019-03-17T05:41:11.115Z,7.60
2019-03-17T05:45:27.583Z,7.60
2019-03-17T05:49:44.036Z,7.60
2019-03-17T05:54:00.692Z,7.70
2019-03-17T05:58:17.186Z,7.60
2019-03-17T06:02:34.037Z,7.60
2019-03-17T06:06:50.543Z,7.60
2019-03-17T06:11:07.338Z,7.50
2019-03-17T06:15:25.188Z,7.50
2019-03-17T06:19:41.709Z,7.60
2019-03-17T06:23:58.502Z,7.70
2019-03-17T06:28:15.073Z,7.70
2019-03-17T06:32:31.589Z,7.80
2019-03-17T06:36:48.231Z,7.90
2019-03-17T06:41:04.820Z,8.10
2019-03-17T06:45:21.355Z,8.40
2019-03-17T06:49:37.848Z,8.70
2019-03-17T06:53:56.719Z,8.90
2019-03-17T06:58:12.599Z,9.00
2019-03-17T07:02:29.145Z,9.10
2019-03-17T07:06:45.663Z,9.20
2019-03-17T07:11:02.171Z,9.40
2019-03-17T07:15:18.721Z,9.50
2019-03-17T07:19:37.158Z,9.60
2019-03-17T07:23:53.950Z,9.80
2019-03-17T07:28:10.792Z,9.80
2019-03-17T07:32:27.286Z,10.00
2019-03-17T07:36:44.125Z,10.20
2019-03-17T07:41:00.805Z,10.30
2019-03-17T07:45:17.334Z,10.60
2019-03-17T07:49:33.880Z,10.90
2019-03-17T07:53:53.755Z,11.20
2019-03-17T07:58:10.608Z,11.50
2019-03-17T08:02:27.506Z,11.60
2019-03-17T08:06:44.034Z,11.80
2019-03-17T08:11:00.696Z,12.00
2019-03-17T08:15:18.466Z,12.10
2019-03-17T08:19:35.032Z,12.30
2019-03-17T08:23:51.501Z,12.60
2019-03-17T08:28:07.963Z,12.90
2019-03-17T08:32:24.538Z,13.30
2019-03-17T08:36:41.042Z,13.50
2019-03-17T08:40:57.938Z,13.80
2019-03-17T08:45:14.629Z,14.00
2019-03-17T08:49:32.893Z,14.20
2019-03-17T08:53:49.385Z,14.50
2019-03-17T08:58:06.466Z,14.70
2019-03-17T09:02:23.014Z,15.00
2019-03-17T09:06:39.558Z,15.10
2019-03-17T09:10:56.057Z,15.30
2019-03-17T09:15:12.772Z,15.40
2019-03-17T09:19:29.282Z,15.20
2019-03-17T09:23:45.789Z,15.20
2019-03-17T09:28:02.355Z,15.20
2019-03-17T09:32:18.831Z,15.50
2019-03-17T09:36:35.359Z,15.60
2019-03-17T09:40:51.867Z,15.80
2019-03-17T09:45:10.178Z,15.70
2019-03-17T09:49:26.643Z,15.60
2019-03-17T09:53:43.138Z,15.50
2019-03-17T09:57:59.556Z,15.60
2019-03-17T10:02:16.060Z,15.90
2019-03-17T10:06:35.194Z,16.10
2019-03-17T10:10:51.948Z,16.20
2019-03-17T10:15:13.897Z,15.90
2019-03-17T10:19:30.723Z,15.90
2019-03-17T10:23:47.354Z,16.00
2019-03-17T10:28:04.139Z,16.20
2019-03-17T10:32:20.622Z,16.10
2019-03-17T10:36:37.245Z,16.10
2019-03-17T10:40:53.697Z,16.00
2019-03-17T10:45:11.148Z,16.10
2019-03-17T10:49:27.611Z,16.10
2019-03-17T10:53:44.106Z,16.30
2019-03-17T10:58:00.660Z,16.50
2019-03-17T11:02:17.047Z,16.80
2019-03-17T11:06:33.757Z,17.40
2019-03-17T11:10:50.522Z,17.90
2019-03-17T11:15:10.780Z,17.60
2019-03-17T11:19:27.287Z,16.90
2019-03-17T11:23:44.066Z,16.50
2019-03-17T11:28:00.592Z,16.00
2019-03-17T11:32:17.062Z,15.50
2019-03-17T11:36:33.620Z,15.20
2019-03-17T11:40:50.363Z,15.50
2019-03-17T11:45:09.983Z,15.60
2019-03-17T11:49:26.485Z,15.60
2019-03-17T11:53:43.005Z,15.60
2019-03-17T11:57:59.563Z,15.40
2019-03-17T12:02:25.964Z,15.90
2019-03-17T12:06:34.287Z,16.40
2019-03-17T12:10:50.877Z,16.60
2019-03-17T12:15:11.094Z,16.50
2019-03-17T12:19:27.624Z,16.80
2019-03-17T12:23:44.403Z,17.20
2019-03-17T12:28:01.175Z,16.90
2019-03-17T12:32:17.675Z,16.80
2019-03-17T12:36:35.037Z,17.50
2019-03-17T12:40:51.518Z,18.00
2019-03-17T12:45:09.338Z,18.10
2019-03-17T12:49:26.057Z,19.20
2019-03-17T12:53:42.486Z,20.50
2019-03-17T12:57:59.034Z,21.30
2019-03-17T13:02:15.663Z,21.30
2019-03-17T13:06:32.146Z,21.70
2019-03-17T13:10:48.976Z,20.80
2019-03-17T13:15:07.692Z,19.40
2019-03-17T13:19:24.441Z,19.00
2019-03-17T13:23:40.963Z,18.80
2019-03-17T13:27:57.507Z,18.00
2019-03-17T13:32:14.387Z,16.80
2019-03-17T13:36:30.868Z,15.80
2019-03-17T13:40:47.344Z,15.70
2019-03-17T13:45:06.258Z,16.50
2019-03-17T13:49:23.223Z,17.00
2019-03-17T13:53:39.694Z,16.90
2019-03-17T13:58:01.392Z,16.90
2019-03-17T14:02:17.819Z,16.70
2019-03-17T14:06:34.558Z,15.90
2019-03-17T14:10:51.876Z,15.30
2019-03-17T14:15:10.799Z,15.20
2019-03-17T14:26:11.035Z,14.40
2019-03-17T14:30:27.649Z,13.80
2019-03-17T14:41:18.940Z,17.80
2019-03-17T16:26:26.996Z,10.10
2019-03-17T16:30:43.801Z,7.90
2019-03-17T16:35:03.737Z,6.80
2019-03-17T16:43:44.181Z,11.30
2019-03-17T16:44:09.594Z,15.10
2019-03-17T16:44:31.126Z,15.70
2019-03-17T16:44:53.762Z,16.10
2019-03-17T16:45:17.252Z,16.30
2019-03-17T16:50:00.857Z,16.40
2019-03-17T16:54:17.415Z,17.50
2019-03-17T17:02:20.274Z,17.60
2019-03-17T17:06:36.835Z,12.70
2019-03-17T17:10:57.233Z,9.40
2019-03-17T17:15:32.139Z,7.70
2019-03-17T17:19:50.915Z,6.90
2019-03-17T17:24:07.536Z,6.40
2019-03-17T17:28:26.272Z,6.20
2019-03-17T17:32:43.071Z,6.00
2019-03-17T17:37:00.143Z,5.90
2019-03-17T17:41:19.536Z,5.80
2019-03-17T17:45:38.118Z,5.70
2019-03-17T17:49:54.658Z,5.70
2019-03-17T17:54:12.115Z,5.60
2019-03-17T17:58:28.854Z,5.60
2019-03-17T18:02:46.048Z,5.60
2019-03-17T18:07:02.968Z,5.70
2019-03-17T18:11:19.537Z,5.70
2019-03-17T18:15:36.310Z,5.60
2019-03-17T18:19:53.172Z,5.70
2019-03-17T18:24:11.127Z,5.60
2019-03-17T18:28:28.933Z,5.60
2019-03-17T18:32:45.815Z,5.60
2019-03-17T18:37:04.080Z,5.60
2019-03-17T18:41:25.109Z,5.50
2019-03-17T18:45:44.036Z,5.50
2019-03-17T18:50:02.534Z,5.50
2019-03-17T18:54:23.518Z,5.50
2019-03-17T18:58:40.115Z,5.50
2019-03-17T19:02:56.632Z,5.40
2019-03-17T19:07:13.149Z,5.40
2019-03-17T19:11:30.987Z,5.50
2019-03-17T19:15:47.884Z,5.60
2019-03-17T19:20:09.231Z,5.60
2019-03-17T19:24:25.935Z,5.60
2019-03-17T19:28:44.527Z,5.70
2019-03-17T19:33:01.028Z,5.60
2019-03-17T19:37:18.719Z,5.60
2019-03-17T19:41:39.629Z,5.60
2019-03-17T19:46:00.539Z,5.60
2019-03-17T19:50:20.938Z,5.70
2019-03-17T19:54:37.478Z,5.60
2019-03-17T19:58:54.387Z,5.60
2019-03-17T20:03:11.467Z,5.60
2019-03-17T20:07:28.481Z,5.60
2019-03-17T20:11:45.166Z,5.60
2019-03-17T20:16:03.185Z,5.60
2019-03-17T20:20:19.857Z,5.50
2019-03-17T20:24:37.652Z,5.40
2019-03-17T20:28:54.299Z,5.40
2019-03-17T20:33:12.082Z,5.40
2019-03-17T20:37:31.270Z,5.30
2019-03-17T20:41:48.724Z,5.30
2019-03-17T20:46:07.274Z,5.30
2019-03-17T20:50:23.929Z,5.30
2019-03-17T20:54:41.423Z,5.30
2019-03-17T20:58:58.537Z,5.30
2019-03-17T21:03:15.618Z,5.30
2019-03-17T21:07:32.261Z,5.30
2019-03-17T21:11:49.151Z,5.30
2019-03-17T21:16:08.506Z,5.30
2019-03-17T21:20:25.496Z,5.30
2019-03-17T21:24:42.347Z,5.30
2019-03-17T21:28:58.872Z,5.30
2019-03-17T21:33:16.761Z,5.30
2019-03-17T21:37:33.535Z,5.30
2019-03-17T21:41:50.150Z,5.30
2019-03-17T21:46:06.751Z,5.30
2019-03-17T21:50:23.735Z,5.30
2019-03-17T21:54:40.685Z,5.30
2019-03-17T21:58:58.618Z,5.40
2019-03-17T22:03:18.609Z,5.40
2019-03-17T22:07:49.291Z,5.40
2019-03-17T22:12:02.276Z,5.40
2019-03-17T22:16:22.960Z,5.30
2019-03-17T22:20:44.290Z,5.30
2019-03-17T22:25:01.834Z,5.20
2019-03-17T22:29:18.508Z,5.10
2019-03-17T22:33:35.097Z,5.10
2019-03-17T22:37:51.592Z,5.20
2019-03-17T22:42:08.369Z,5.20
2019-03-17T22:46:24.915Z,5.20
2019-03-17T22:50:41.942Z,5.30
2019-03-17T22:54:58.522Z,5.30
2019-03-17T22:59:14.980Z,5.30
2019-03-17T23:03:31.506Z,5.40
2019-03-17T23:07:48.186Z,5.40
2019-03-17T23:12:04.746Z,5.30
2019-03-17T23:16:21.655Z,5.20
2019-03-17T23:20:38.376Z,5.20
2019-03-17T23:24:55.178Z,5.20
2019-03-17T23:29:12.028Z,5.10
2019-03-17T23:33:28.777Z,5.00
2019-03-17T23:37:45.470Z,4.80
2019-03-17T23:42:01.973Z,4.80
2019-03-17T23:46:18.840Z,4.70
2019-03-17T23:50:35.431Z,4.60
2019-03-17T23:54:51.948Z,4.50
2019-03-17T23:59:08.479Z,4.40
